AUA25N LOWW-EDDH
Flight info
| Callsign | AUA25N |
|---|---|
| Flight time | 1h 17m |
| Altitude | 38000 |
| Route | LANUX DCT LALUK DCT MILGU DCT SOGMA M748 RARUP RARUP6A |
| Aircraft | A20N/M-SDE2E3FGHIJ1RWXY/LB1 |
Departure
| Time | 2026-05-06 11:29 |
|---|---|
| Airport | Vienna International Airport (LOWW) |
Arrival
| Time | 2026-05-06 12:46 |
|---|---|
| Airport | Hamburg Helmut Schmidt Airport (EDDH) |
| Time | Latitude | Longitude | Altitude | Speed | Heading |
|---|---|---|---|---|---|
| 2026-05-06 10:59 | 48.11777 | 16.56569 | 608 ft | 0 kts | 27° |
| 2026-05-06 11:15 | 48.11774 | 16.56567 | 608 ft | 2 kts | 27° |
| 2026-05-06 11:15 | 48.11760 | 16.56556 | 608 ft | 2 kts | 26° |
| 2026-05-06 11:16 | 48.11747 | 16.56546 | 608 ft | 2 kts | 27° |
| 2026-05-06 11:16 | 48.11734 | 16.56536 | 608 ft | 2 kts | 26° |
| 2026-05-06 11:16 | 48.11720 | 16.56527 | 608 ft | 1 kts | 44° |
| 2026-05-06 11:16 | 48.11714 | 16.56507 | 608 ft | 2 kts | 93° |
| 2026-05-06 11:17 | 48.11716 | 16.56495 | 608 ft | 1 kts | 120° |
| 2026-05-06 11:17 | 48.11720 | 16.56487 | 608 ft | 0 kts | 117° |
| 2026-05-06 11:17 | 48.11719 | 16.56487 | 608 ft | 0 kts | 117° |
| 2026-05-06 11:18 | 48.11719 | 16.56488 | 608 ft | 1 kts | 118° |
| 2026-05-06 11:18 | 48.11698 | 16.56550 | 608 ft | 9 kts | 116° |
| 2026-05-06 11:19 | 48.11668 | 16.56642 | 608 ft | 9 kts | 115° |
| 2026-05-06 11:19 | 48.11640 | 16.56729 | 608 ft | 9 kts | 116° |
| 2026-05-06 11:19 | 48.11612 | 16.56816 | 608 ft | 9 kts | 117° |
| 2026-05-06 11:19 | 48.11585 | 16.56900 | 608 ft | 8 kts | 114° |
| 2026-05-06 11:20 | 48.11559 | 16.56982 | 608 ft | 8 kts | 117° |
| 2026-05-06 11:20 | 48.11532 | 16.57060 | 608 ft | 8 kts | 117° |
| 2026-05-06 11:20 | 48.11507 | 16.57136 | 608 ft | 7 kts | 115° |
| 2026-05-06 11:20 | 48.11484 | 16.57210 | 608 ft | 7 kts | 116° |
| 2026-05-06 11:21 | 48.11460 | 16.57280 | 608 ft | 7 kts | 118° |
| 2026-05-06 11:21 | 48.11437 | 16.57348 | 608 ft | 7 kts | 110° |
| 2026-05-06 11:21 | 48.11443 | 16.57413 | 608 ft | 6 kts | 53° |
| 2026-05-06 11:21 | 48.11475 | 16.57449 | 608 ft | 5 kts | 32° |
| 2026-05-06 11:22 | 48.11509 | 16.57476 | 608 ft | 5 kts | 29° |
| 2026-05-06 11:22 | 48.11543 | 16.57504 | 608 ft | 5 kts | 30° |
| 2026-05-06 11:22 | 48.11577 | 16.57532 | 608 ft | 5 kts | 28° |
| 2026-05-06 11:22 | 48.11617 | 16.57547 | 608 ft | 6 kts | 359° |
| 2026-05-06 11:23 | 48.11666 | 16.57531 | 608 ft | 8 kts | 345° |
| 2026-05-06 11:23 | 48.11726 | 16.57504 | 608 ft | 9 kts | 342° |
| 2026-05-06 11:23 | 48.11797 | 16.57474 | 608 ft | 11 kts | 346° |
| 2026-05-06 11:23 | 48.11870 | 16.57444 | 608 ft | 11 kts | 344° |
| 2026-05-06 11:24 | 48.11935 | 16.57416 | 608 ft | 7 kts | 344° |
| 2026-05-06 11:24 | 48.11991 | 16.57421 | 608 ft | 9 kts | 34° |
| 2026-05-06 11:24 | 48.12005 | 16.57512 | 608 ft | 9 kts | 101° |
| 2026-05-06 11:24 | 48.11991 | 16.57616 | 608 ft | 10 kts | 103° |
| 2026-05-06 11:25 | 48.11974 | 16.57714 | 608 ft | 5 kts | 106° |
| 2026-05-06 11:25 | 48.11972 | 16.57722 | 608 ft | 0 kts | 107° |
| 2026-05-06 11:26 | 48.11972 | 16.57723 | 608 ft | 0 kts | 107° |
| 2026-05-06 11:26 | 48.11970 | 16.57730 | 608 ft | 1 kts | 108° |
| 2026-05-06 11:26 | 48.11966 | 16.57747 | 608 ft | 2 kts | 112° |
| 2026-05-06 11:26 | 48.11958 | 16.57772 | 608 ft | 3 kts | 120° |
| 2026-05-06 11:27 | 48.11943 | 16.57804 | 608 ft | 4 kts | 131° |
| 2026-05-06 11:27 | 48.11917 | 16.57834 | 608 ft | 5 kts | 151° |
| 2026-05-06 11:27 | 48.11881 | 16.57856 | 608 ft | 5 kts | 162° |
| 2026-05-06 11:27 | 48.11876 | 16.57859 | 608 ft | 0 kts | 163° |
| 2026-05-06 11:28 | 48.11858 | 16.57867 | 608 ft | 13 kts | 164° |
| 2026-05-06 11:28 | 48.11513 | 16.58015 | 608 ft | 88 kts | 164° |
| 2026-05-06 11:28 | 48.10702 | 16.58339 | 609 ft | 149 kts | 164° |
| 2026-05-06 11:28 | 48.09650 | 16.58766 | 1105 ft | 159 kts | 163° |
| 2026-05-06 11:29 | 48.08600 | 16.59214 | 1816 ft | 161 kts | 163° |
| 2026-05-06 11:29 | 48.07558 | 16.59737 | 2554 ft | 161 kts | 160° |
| 2026-05-06 11:29 | 48.06470 | 16.60427 | 3022 ft | 176 kts | 153° |
| 2026-05-06 11:29 | 48.05487 | 16.61536 | 3658 ft | 183 kts | 136° |
| 2026-05-06 11:30 | 48.04812 | 16.63149 | 4318 ft | 191 kts | 115° |
| 2026-05-06 11:30 | 48.04604 | 16.65123 | 4976 ft | 201 kts | 92° |
| 2026-05-06 11:30 | 48.04967 | 16.67148 | 5629 ft | 211 kts | 67° |
| 2026-05-06 11:30 | 48.05906 | 16.68841 | 6275 ft | 219 kts | 43° |
| 2026-05-06 11:31 | 48.07150 | 16.70256 | 6710 ft | 238 kts | 39° |
| 2026-05-06 11:31 | 48.08549 | 16.71772 | 7150 ft | 257 kts | 38° |
| 2026-05-06 11:31 | 48.10038 | 16.73376 | 7636 ft | 275 kts | 37° |
| 2026-05-06 11:31 | 48.11628 | 16.75116 | 8118 ft | 293 kts | 38° |
| 2026-05-06 11:32 | 48.13318 | 16.76984 | 8738 ft | 306 kts | 38° |
| 2026-05-06 11:32 | 48.15139 | 16.78605 | 9510 ft | 311 kts | 17° |
| 2026-05-06 11:32 | 48.17258 | 16.78957 | 10302 ft | 310 kts | 351° |
| 2026-05-06 11:32 | 48.19399 | 16.78421 | 10821 ft | 323 kts | 346° |
| 2026-05-06 11:33 | 48.21663 | 16.77723 | 11251 ft | 339 kts | 345° |
| 2026-05-06 11:33 | 48.23983 | 16.77030 | 11908 ft | 347 kts | 346° |
| 2026-05-06 11:33 | 48.26363 | 16.76364 | 12683 ft | 350 kts | 346° |
| 2026-05-06 11:33 | 48.28773 | 16.75718 | 13399 ft | 355 kts | 346° |
| 2026-05-06 11:34 | 48.31182 | 16.75079 | 14130 ft | 359 kts | 346° |
| 2026-05-06 11:34 | 48.33606 | 16.74247 | 14881 ft | 359 kts | 340° |
| 2026-05-06 11:34 | 48.35943 | 16.72957 | 15609 ft | 359 kts | 332° |
| 2026-05-06 11:34 | 48.38197 | 16.71288 | 16326 ft | 361 kts | 329° |
| 2026-05-06 11:35 | 48.40404 | 16.69535 | 16993 ft | 364 kts | 329° |
| 2026-05-06 11:35 | 48.42611 | 16.67637 | 17664 ft | 365 kts | 320° |
| 2026-05-06 11:35 | 48.44381 | 16.65006 | 18285 ft | 361 kts | 302° |
| 2026-05-06 11:35 | 48.45533 | 16.61704 | 18945 ft | 357 kts | 287° |
| 2026-05-06 11:36 | 48.46395 | 16.58183 | 19622 ft | 359 kts | 285° |
| 2026-05-06 11:36 | 48.47224 | 16.54694 | 20263 ft | 361 kts | 286° |
| 2026-05-06 11:36 | 48.48083 | 16.51110 | 20952 ft | 363 kts | 286° |
| 2026-05-06 11:36 | 48.48939 | 16.47582 | 21622 ft | 364 kts | 286° |
| 2026-05-06 11:37 | 48.49813 | 16.44004 | 22288 ft | 365 kts | 286° |
| 2026-05-06 11:37 | 48.50694 | 16.40402 | 22923 ft | 367 kts | 286° |
| 2026-05-06 11:37 | 48.51573 | 16.36819 | 23529 ft | 369 kts | 285° |
| 2026-05-06 11:37 | 48.52460 | 16.33187 | 24117 ft | 372 kts | 285° |
| 2026-05-06 11:38 | 48.53360 | 16.29506 | 24694 ft | 375 kts | 285° |
| 2026-05-06 11:38 | 48.54255 | 16.25835 | 25229 ft | 378 kts | 285° |
| 2026-05-06 11:38 | 48.55168 | 16.22094 | 25731 ft | 382 kts | 285° |
| 2026-05-06 11:38 | 48.56077 | 16.18372 | 26202 ft | 386 kts | 286° |
| 2026-05-06 11:39 | 48.57208 | 16.14683 | 26695 ft | 393 kts | 294° |
| 2026-05-06 11:39 | 48.58705 | 16.11173 | 27188 ft | 401 kts | 301° |
| 2026-05-06 11:39 | 48.60509 | 16.07942 | 27636 ft | 408 kts | 306° |
| 2026-05-06 11:39 | 48.62450 | 16.04773 | 28079 ft | 411 kts | 307° |
| 2026-05-06 11:40 | 48.64397 | 16.01634 | 28510 ft | 413 kts | 307° |
| 2026-05-06 11:40 | 48.66344 | 15.98484 | 28907 ft | 415 kts | 307° |
| 2026-05-06 11:40 | 48.68321 | 15.95275 | 29298 ft | 417 kts | 307° |
| 2026-05-06 11:40 | 48.70296 | 15.92053 | 29662 ft | 420 kts | 307° |
| 2026-05-06 11:41 | 48.72269 | 15.88827 | 30010 ft | 422 kts | 307° |
| 2026-05-06 11:41 | 48.74266 | 15.85556 | 30360 ft | 424 kts | 307° |
| 2026-05-06 11:41 | 48.76239 | 15.82316 | 30693 ft | 425 kts | 307° |
| 2026-05-06 11:41 | 48.78255 | 15.79004 | 31058 ft | 425 kts | 307° |
| 2026-05-06 11:42 | 48.80241 | 15.75737 | 31488 ft | 423 kts | 307° |
| 2026-05-06 11:42 | 48.82233 | 15.72454 | 31918 ft | 421 kts | 307° |
| 2026-05-06 11:42 | 48.84211 | 15.69223 | 32341 ft | 421 kts | 308° |
| 2026-05-06 11:42 | 48.86277 | 15.66133 | 32731 ft | 422 kts | 311° |
| 2026-05-06 11:43 | 48.88483 | 15.63182 | 33104 ft | 423 kts | 314° |
| 2026-05-06 11:43 | 48.90790 | 15.60434 | 33478 ft | 424 kts | 317° |
| 2026-05-06 11:43 | 48.93203 | 15.57883 | 33845 ft | 425 kts | 321° |
| 2026-05-06 11:44 | 48.98268 | 15.53295 | 34493 ft | 427 kts | 324° |
| 2026-05-06 11:44 | 49.00838 | 15.51075 | 34805 ft | 425 kts | 324° |
| 2026-05-06 11:44 | 49.03419 | 15.48842 | 35072 ft | 424 kts | 324° |
| 2026-05-06 11:44 | 49.05954 | 15.46643 | 35302 ft | 424 kts | 324° |
| 2026-05-06 11:45 | 49.08517 | 15.44412 | 35504 ft | 425 kts | 324° |
| 2026-05-06 11:45 | 49.11099 | 15.42161 | 35696 ft | 425 kts | 324° |
| 2026-05-06 11:45 | 49.13634 | 15.39947 | 35892 ft | 425 kts | 324° |
| 2026-05-06 11:45 | 49.16196 | 15.37704 | 36086 ft | 426 kts | 324° |
| 2026-05-06 11:46 | 49.18753 | 15.35463 | 36258 ft | 426 kts | 324° |
| 2026-05-06 11:46 | 49.21322 | 15.33210 | 36434 ft | 426 kts | 323° |
| 2026-05-06 11:46 | 49.23882 | 15.30964 | 36637 ft | 427 kts | 323° |
| 2026-05-06 11:46 | 49.26469 | 15.28688 | 36822 ft | 428 kts | 323° |
| 2026-05-06 11:47 | 49.29015 | 15.26443 | 36977 ft | 429 kts | 324° |
| 2026-05-06 11:47 | 49.31620 | 15.24145 | 37173 ft | 430 kts | 324° |
| 2026-05-06 11:47 | 49.34204 | 15.21865 | 37307 ft | 432 kts | 324° |
| 2026-05-06 11:47 | 49.36808 | 15.19562 | 37451 ft | 433 kts | 324° |
| 2026-05-06 11:48 | 49.39402 | 15.17266 | 37583 ft | 434 kts | 324° |
| 2026-05-06 11:48 | 49.42006 | 15.14959 | 37696 ft | 435 kts | 324° |
| 2026-05-06 11:48 | 49.47261 | 15.10295 | 37777 ft | 437 kts | 324° |
| 2026-05-06 11:49 | 49.52525 | 15.05613 | 37771 ft | 437 kts | 324° |
| 2026-05-06 11:49 | 49.57780 | 15.00928 | 37765 ft | 438 kts | 324° |
| 2026-05-06 11:50 | 49.63032 | 14.96230 | 37761 ft | 438 kts | 324° |
| 2026-05-06 11:50 | 49.68289 | 14.91516 | 37771 ft | 438 kts | 324° |
| 2026-05-06 11:51 | 49.73528 | 14.86807 | 37757 ft | 438 kts | 324° |
| 2026-05-06 11:51 | 49.78787 | 14.82067 | 37777 ft | 439 kts | 324° |
| 2026-05-06 11:52 | 49.84029 | 14.77331 | 37771 ft | 438 kts | 324° |
| 2026-05-06 11:52 | 49.89261 | 14.72594 | 37761 ft | 438 kts | 324° |
| 2026-05-06 11:53 | 49.94521 | 14.67817 | 37750 ft | 439 kts | 324° |
| 2026-05-06 11:53 | 49.99780 | 14.63029 | 37760 ft | 439 kts | 324° |
| 2026-05-06 11:54 | 50.05015 | 14.58251 | 37759 ft | 438 kts | 324° |
| 2026-05-06 11:54 | 50.10246 | 14.53463 | 37764 ft | 438 kts | 324° |
| 2026-05-06 11:55 | 50.15512 | 14.48632 | 37755 ft | 438 kts | 324° |
| 2026-05-06 11:55 | 50.20751 | 14.43812 | 37760 ft | 439 kts | 324° |
| 2026-05-06 11:56 | 50.25997 | 14.38976 | 37754 ft | 439 kts | 324° |
| 2026-05-06 11:56 | 50.31244 | 14.34126 | 37748 ft | 439 kts | 323° |
| 2026-05-06 11:57 | 50.36470 | 14.29280 | 37750 ft | 439 kts | 323° |
| 2026-05-06 11:57 | 50.41677 | 14.24443 | 37758 ft | 439 kts | 323° |
| 2026-05-06 11:58 | 50.46914 | 14.19564 | 37745 ft | 439 kts | 323° |
| 2026-05-06 11:58 | 50.52134 | 14.14685 | 37745 ft | 439 kts | 323° |
| 2026-05-06 11:59 | 50.57389 | 14.09764 | 37748 ft | 440 kts | 323° |
| 2026-05-06 11:59 | 50.62599 | 14.04869 | 37754 ft | 440 kts | 323° |
| 2026-05-06 12:00 | 50.67851 | 13.99926 | 37757 ft | 440 kts | 324° |
| 2026-05-06 12:00 | 50.73065 | 13.95004 | 37750 ft | 439 kts | 323° |
| 2026-05-06 12:01 | 50.78299 | 13.90049 | 37749 ft | 440 kts | 323° |
| 2026-05-06 12:01 | 50.83413 | 13.84829 | 37751 ft | 439 kts | 320° |
| 2026-05-06 12:02 | 50.88426 | 13.79358 | 37748 ft | 439 kts | 320° |
| 2026-05-06 12:02 | 50.93445 | 13.73863 | 37752 ft | 439 kts | 320° |
| 2026-05-06 12:03 | 50.98463 | 13.68362 | 37747 ft | 439 kts | 320° |
| 2026-05-06 12:03 | 51.03486 | 13.62849 | 37756 ft | 440 kts | 320° |
| 2026-05-06 12:04 | 51.08515 | 13.57316 | 37760 ft | 440 kts | 320° |
| 2026-05-06 12:04 | 51.13528 | 13.51785 | 37812 ft | 439 kts | 320° |
| 2026-05-06 12:05 | 51.18511 | 13.46271 | 37768 ft | 439 kts | 320° |
| 2026-05-06 12:05 | 51.23494 | 13.40745 | 37752 ft | 438 kts | 320° |
| 2026-05-06 12:06 | 51.28522 | 13.35153 | 37761 ft | 439 kts | 320° |
| 2026-05-06 12:06 | 51.33495 | 13.29607 | 37746 ft | 438 kts | 320° |
| 2026-05-06 12:07 | 51.38483 | 13.24026 | 37740 ft | 438 kts | 320° |
| 2026-05-06 12:07 | 51.43470 | 13.18434 | 37748 ft | 438 kts | 320° |
| 2026-05-06 12:08 | 51.48422 | 13.12870 | 37747 ft | 438 kts | 320° |
| 2026-05-06 12:08 | 51.53402 | 13.07257 | 37759 ft | 438 kts | 320° |
| 2026-05-06 12:09 | 51.58405 | 13.01708 | 37754 ft | 439 kts | 322° |
| 2026-05-06 12:09 | 51.63583 | 12.96362 | 37755 ft | 439 kts | 323° |
| 2026-05-06 12:10 | 51.68702 | 12.91096 | 37761 ft | 439 kts | 323° |
| 2026-05-06 12:10 | 51.73850 | 12.85775 | 37761 ft | 438 kts | 323° |
| 2026-05-06 12:11 | 51.78968 | 12.80467 | 37763 ft | 439 kts | 323° |
| 2026-05-06 12:11 | 51.84102 | 12.75124 | 37762 ft | 439 kts | 323° |
| 2026-05-06 12:12 | 51.89213 | 12.69791 | 37762 ft | 439 kts | 323° |
| 2026-05-06 12:12 | 51.94345 | 12.64419 | 37766 ft | 439 kts | 323° |
| 2026-05-06 12:13 | 51.99486 | 12.59027 | 37764 ft | 438 kts | 323° |
| 2026-05-06 12:13 | 52.04607 | 12.53640 | 37764 ft | 438 kts | 323° |
| 2026-05-06 12:14 | 52.09716 | 12.48247 | 37770 ft | 438 kts | 323° |
| 2026-05-06 12:14 | 52.14793 | 12.42870 | 37776 ft | 438 kts | 323° |
| 2026-05-06 12:15 | 52.19883 | 12.37472 | 37774 ft | 439 kts | 323° |
| 2026-05-06 12:15 | 52.25013 | 12.32015 | 37776 ft | 438 kts | 323° |
| 2026-05-06 12:16 | 52.30106 | 12.26580 | 37773 ft | 438 kts | 323° |
| 2026-05-06 12:16 | 52.35226 | 12.21103 | 37781 ft | 438 kts | 323° |
| 2026-05-06 12:17 | 52.40313 | 12.15645 | 37776 ft | 438 kts | 322° |
| 2026-05-06 12:17 | 52.45441 | 12.10129 | 37781 ft | 438 kts | 323° |
| 2026-05-06 12:18 | 52.50483 | 12.04688 | 37414 ft | 436 kts | 322° |
| 2026-05-06 12:18 | 52.53039 | 12.01921 | 36586 ft | 446 kts | 322° |
| 2026-05-06 12:18 | 52.55629 | 11.99114 | 35832 ft | 452 kts | 323° |
| 2026-05-06 12:19 | 52.58228 | 11.96294 | 35242 ft | 453 kts | 323° |
| 2026-05-06 12:19 | 52.60856 | 11.93442 | 34681 ft | 453 kts | 323° |
| 2026-05-06 12:19 | 52.63463 | 11.90551 | 34131 ft | 452 kts | 321° |
| 2026-05-06 12:19 | 52.65965 | 11.87496 | 33578 ft | 453 kts | 320° |
| 2026-05-06 12:20 | 52.68446 | 11.84359 | 32966 ft | 455 kts | 320° |
| 2026-05-06 12:20 | 52.70950 | 11.81166 | 32229 ft | 457 kts | 321° |
| 2026-05-06 12:20 | 52.73441 | 11.77991 | 31435 ft | 460 kts | 321° |
| 2026-05-06 12:20 | 52.75977 | 11.74761 | 30580 ft | 463 kts | 322° |
| 2026-05-06 12:21 | 52.78516 | 11.71537 | 29734 ft | 463 kts | 322° |
| 2026-05-06 12:21 | 52.81037 | 11.68340 | 29176 ft | 457 kts | 322° |
| 2026-05-06 12:21 | 52.83530 | 11.65168 | 28664 ft | 451 kts | 322° |
| 2026-05-06 12:21 | 52.85996 | 11.62023 | 28109 ft | 446 kts | 322° |
| 2026-05-06 12:22 | 52.88427 | 11.58917 | 27540 ft | 441 kts | 322° |
| 2026-05-06 12:22 | 52.90835 | 11.55830 | 26981 ft | 436 kts | 321° |
| 2026-05-06 12:22 | 52.93197 | 11.52803 | 26430 ft | 432 kts | 321° |
| 2026-05-06 12:22 | 52.95561 | 11.49770 | 25903 ft | 427 kts | 321° |
| 2026-05-06 12:23 | 52.97885 | 11.46785 | 25355 ft | 422 kts | 321° |
| 2026-05-06 12:23 | 53.00178 | 11.43834 | 24811 ft | 418 kts | 321° |
| 2026-05-06 12:23 | 53.02443 | 11.40913 | 24270 ft | 414 kts | 321° |
| 2026-05-06 12:23 | 53.04722 | 11.37974 | 23712 ft | 410 kts | 321° |
| 2026-05-06 12:24 | 53.06941 | 11.35115 | 23070 ft | 409 kts | 321° |
| 2026-05-06 12:24 | 53.09186 | 11.32229 | 22513 ft | 406 kts | 320° |
| 2026-05-06 12:24 | 53.11383 | 11.29408 | 22030 ft | 401 kts | 321° |
| 2026-05-06 12:24 | 53.13644 | 11.26698 | 21539 ft | 397 kts | 323° |
| 2026-05-06 12:25 | 53.15902 | 11.24089 | 21061 ft | 393 kts | 322° |
| 2026-05-06 12:25 | 53.18107 | 11.21558 | 20612 ft | 389 kts | 322° |
| 2026-05-06 12:25 | 53.20340 | 11.18988 | 20157 ft | 385 kts | 323° |
| 2026-05-06 12:25 | 53.22500 | 11.16498 | 19701 ft | 381 kts | 322° |
| 2026-05-06 12:26 | 53.24682 | 11.13978 | 19241 ft | 378 kts | 322° |
| 2026-05-06 12:26 | 53.26817 | 11.11504 | 18794 ft | 375 kts | 322° |
| 2026-05-06 12:26 | 53.28945 | 11.09036 | 18352 ft | 372 kts | 322° |
| 2026-05-06 12:26 | 53.31055 | 11.06583 | 17917 ft | 368 kts | 322° |
| 2026-05-06 12:27 | 53.33128 | 11.04168 | 17479 ft | 365 kts | 322° |
| 2026-05-06 12:27 | 53.35200 | 11.01754 | 17043 ft | 363 kts | 322° |
| 2026-05-06 12:27 | 53.37244 | 10.99369 | 16602 ft | 360 kts | 323° |
| 2026-05-06 12:27 | 53.39298 | 10.96971 | 16163 ft | 357 kts | 323° |
| 2026-05-06 12:28 | 53.41329 | 10.94599 | 15725 ft | 354 kts | 323° |
| 2026-05-06 12:28 | 53.43310 | 10.92281 | 15295 ft | 352 kts | 323° |
| 2026-05-06 12:28 | 53.45303 | 10.89945 | 14869 ft | 349 kts | 323° |
| 2026-05-06 12:28 | 53.47279 | 10.87627 | 14444 ft | 347 kts | 324° |
| 2026-05-06 12:29 | 53.49260 | 10.85303 | 14010 ft | 345 kts | 324° |
| 2026-05-06 12:29 | 53.51199 | 10.83022 | 13591 ft | 344 kts | 324° |
| 2026-05-06 12:29 | 53.53157 | 10.80718 | 13166 ft | 342 kts | 323° |
| 2026-05-06 12:29 | 53.55101 | 10.78425 | 12743 ft | 341 kts | 324° |
| 2026-05-06 12:30 | 53.57008 | 10.76175 | 12335 ft | 339 kts | 325° |
| 2026-05-06 12:30 | 53.58940 | 10.73892 | 11904 ft | 337 kts | 325° |
| 2026-05-06 12:30 | 53.60847 | 10.71637 | 11484 ft | 334 kts | 325° |
| 2026-05-06 12:30 | 53.62515 | 10.68988 | 11043 ft | 332 kts | 303° |
| 2026-05-06 12:31 | 53.63297 | 10.65459 | 10845 ft | 322 kts | 277° |
| 2026-05-06 12:31 | 53.63124 | 10.61711 | 10841 ft | 323 kts | 255° |
| 2026-05-06 12:31 | 53.62439 | 10.58144 | 10840 ft | 323 kts | 252° |
| 2026-05-06 12:31 | 53.61729 | 10.54581 | 10523 ft | 322 kts | 252° |
| 2026-05-06 12:32 | 53.61034 | 10.51051 | 10181 ft | 317 kts | 252° |
| 2026-05-06 12:32 | 53.60355 | 10.47563 | 9809 ft | 313 kts | 252° |
| 2026-05-06 12:32 | 53.59684 | 10.44089 | 9477 ft | 309 kts | 252° |
| 2026-05-06 12:32 | 53.59027 | 10.40676 | 9103 ft | 306 kts | 253° |
| 2026-05-06 12:33 | 53.58380 | 10.37305 | 8803 ft | 301 kts | 252° |
| 2026-05-06 12:33 | 53.57744 | 10.33992 | 8498 ft | 297 kts | 252° |
| 2026-05-06 12:33 | 53.57109 | 10.30700 | 8175 ft | 292 kts | 252° |
| 2026-05-06 12:33 | 53.56495 | 10.27513 | 7875 ft | 288 kts | 252° |
| 2026-05-06 12:34 | 53.55884 | 10.24342 | 7538 ft | 284 kts | 252° |
| 2026-05-06 12:34 | 53.55278 | 10.21209 | 7210 ft | 281 kts | 252° |
| 2026-05-06 12:34 | 53.54679 | 10.18110 | 6911 ft | 276 kts | 252° |
| 2026-05-06 12:34 | 53.54096 | 10.15098 | 6845 ft | 263 kts | 252° |
| 2026-05-06 12:35 | 53.53542 | 10.12239 | 6840 ft | 258 kts | 251° |
| 2026-05-06 12:35 | 53.52985 | 10.09379 | 6840 ft | 258 kts | 251° |
| 2026-05-06 12:35 | 53.52431 | 10.06539 | 6838 ft | 257 kts | 251° |
| 2026-05-06 12:35 | 53.51866 | 10.03653 | 6615 ft | 257 kts | 252° |
| 2026-05-06 12:36 | 53.51317 | 10.00839 | 6373 ft | 257 kts | 251° |
| 2026-05-06 12:36 | 53.50764 | 9.98002 | 6123 ft | 256 kts | 252° |
| 2026-05-06 12:36 | 53.50138 | 9.95200 | 5858 ft | 255 kts | 242° |
| 2026-05-06 12:36 | 53.49206 | 9.92690 | 5599 ft | 254 kts | 231° |
| 2026-05-06 12:37 | 53.48100 | 9.90406 | 5339 ft | 253 kts | 228° |
| 2026-05-06 12:37 | 53.46954 | 9.88156 | 5090 ft | 252 kts | 229° |
| 2026-05-06 12:37 | 53.45833 | 9.85949 | 4987 ft | 253 kts | 228° |
| 2026-05-06 12:37 | 53.44682 | 9.83672 | 4983 ft | 254 kts | 229° |
| 2026-05-06 12:38 | 53.43561 | 9.81426 | 4981 ft | 255 kts | 230° |
| 2026-05-06 12:38 | 53.42735 | 9.78812 | 4975 ft | 253 kts | 259° |
| 2026-05-06 12:38 | 53.42774 | 9.75989 | 4965 ft | 238 kts | 293° |
| 2026-05-06 12:38 | 53.43595 | 9.73746 | 4972 ft | 217 kts | 318° |
| 2026-05-06 12:39 | 53.44653 | 9.72001 | 4822 ft | 210 kts | 323° |
| 2026-05-06 12:39 | 53.45760 | 9.70396 | 4381 ft | 212 kts | 330° |
| 2026-05-06 12:39 | 53.47090 | 9.69651 | 3925 ft | 199 kts | 6° |
| 2026-05-06 12:39 | 53.48346 | 9.70289 | 3514 ft | 183 kts | 33° |
| 2026-05-06 12:40 | 53.49328 | 9.71540 | 3130 ft | 174 kts | 45° |
| 2026-05-06 12:40 | 53.50139 | 9.72909 | 2983 ft | 155 kts | 48° |
| 2026-05-06 12:40 | 53.50819 | 9.74136 | 2952 ft | 135 kts | 50° |
| 2026-05-06 12:40 | 53.51433 | 9.75299 | 2966 ft | 134 kts | 50° |
| 2026-05-06 12:41 | 53.52041 | 9.76490 | 2978 ft | 134 kts | 51° |
| 2026-05-06 12:41 | 53.52635 | 9.77675 | 2950 ft | 133 kts | 51° |
| 2026-05-06 12:41 | 53.53226 | 9.78868 | 2761 ft | 132 kts | 51° |
| 2026-05-06 12:41 | 53.53811 | 9.80061 | 2577 ft | 131 kts | 51° |
| 2026-05-06 12:42 | 53.54388 | 9.81239 | 2398 ft | 130 kts | 51° |
| 2026-05-06 12:42 | 53.54961 | 9.82410 | 2224 ft | 130 kts | 51° |
| 2026-05-06 12:42 | 53.55531 | 9.83575 | 2048 ft | 130 kts | 51° |
| 2026-05-06 12:42 | 53.56101 | 9.84740 | 1874 ft | 129 kts | 51° |
| 2026-05-06 12:43 | 53.56676 | 9.85911 | 1703 ft | 129 kts | 50° |
| 2026-05-06 12:43 | 53.57245 | 9.87068 | 1531 ft | 129 kts | 50° |
| 2026-05-06 12:43 | 53.57812 | 9.88217 | 1367 ft | 128 kts | 50° |
| 2026-05-06 12:43 | 53.58395 | 9.89366 | 1179 ft | 128 kts | 50° |
| 2026-05-06 12:44 | 53.58954 | 9.90522 | 1013 ft | 127 kts | 51° |
| 2026-05-06 12:44 | 53.59508 | 9.91672 | 850 ft | 127 kts | 52° |
| 2026-05-06 12:44 | 53.60067 | 9.92810 | 683 ft | 127 kts | 51° |
| 2026-05-06 12:44 | 53.60628 | 9.93941 | 512 ft | 126 kts | 51° |
| 2026-05-06 12:45 | 53.61181 | 9.95079 | 336 ft | 125 kts | 51° |
| 2026-05-06 12:45 | 53.61744 | 9.96207 | 159 ft | 124 kts | 52° |
| 2026-05-06 12:45 | 53.62778 | 9.98300 | 62 ft | 86 kts | 52° |
| 2026-05-06 12:46 | 53.63063 | 9.98880 | 62 ft | 51 kts | 46° |
| 2026-05-06 12:46 | 53.63229 | 9.99213 | 62 ft | 18 kts | 54° |
| 2026-05-06 12:46 | 53.63274 | 9.99329 | 62 ft | 9 kts | 63° |
| 2026-05-06 12:46 | 53.63289 | 9.99442 | 62 ft | 8 kts | 82° |
| 2026-05-06 12:47 | 53.63290 | 9.99455 | 62 ft | 1 kts | 83° |
| 2026-05-06 12:47 | 53.63290 | 9.99466 | 62 ft | 0 kts | 85° |
| 2026-05-06 12:47 | 53.63291 | 9.99478 | 62 ft | 1 kts | 85° |
| 2026-05-06 12:47 | 53.63291 | 9.99505 | 62 ft | 3 kts | 91° |
| 2026-05-06 12:48 | 53.63289 | 9.99547 | 62 ft | 4 kts | 97° |
| 2026-05-06 12:48 | 53.63285 | 9.99605 | 62 ft | 5 kts | 98° |
| 2026-05-06 12:48 | 53.63277 | 9.99675 | 62 ft | 6 kts | 101° |
| 2026-05-06 12:48 | 53.63280 | 9.99757 | 62 ft | 6 kts | 66° |
| 2026-05-06 12:49 | 53.63309 | 9.99830 | 62 ft | 8 kts | 52° |
| 2026-05-06 12:49 | 53.63349 | 9.99906 | 62 ft | 9 kts | 48° |
| 2026-05-06 12:49 | 53.63384 | 9.99975 | 62 ft | 7 kts | 50° |
| 2026-05-06 12:49 | 53.63411 | 10.00032 | 62 ft | 4 kts | 52° |
| 2026-05-06 12:50 | 53.63426 | 10.00082 | 62 ft | 5 kts | 78° |
| 2026-05-06 12:50 | 53.63417 | 10.00134 | 62 ft | 4 kts | 130° |
| 2026-05-06 12:50 | 53.63390 | 10.00155 | 62 ft | 4 kts | 169° |
| 2026-05-06 12:50 | 53.63360 | 10.00160 | 62 ft | 4 kts | 174° |
| 2026-05-06 12:51 | 53.63325 | 10.00165 | 62 ft | 5 kts | 176° |
| 2026-05-06 12:51 | 53.63285 | 10.00170 | 62 ft | 4 kts | 175° |
| 2026-05-06 12:51 | 53.63249 | 10.00175 | 62 ft | 5 kts | 176° |
| 2026-05-06 12:51 | 53.63212 | 10.00179 | 62 ft | 5 kts | 176° |
| 2026-05-06 12:52 | 53.63184 | 10.00182 | 62 ft | 0 kts | 175° |
| 2026-05-06 12:52 | 53.63181 | 10.00182 | 62 ft | 0 kts | 175° |
| 2026-05-06 12:52 | 53.63175 | 10.00183 | 62 ft | 1 kts | 176° |
| 2026-05-06 12:52 | 53.63166 | 10.00184 | 62 ft | 1 kts | 176° |
| 2026-05-06 12:53 | 53.63156 | 10.00185 | 62 ft | 1 kts | 176° |
| 2026-05-06 12:53 | 53.63142 | 10.00187 | 62 ft | 2 kts | 175° |
| 2026-05-06 12:53 | 53.63126 | 10.00189 | 62 ft | 2 kts | 175° |
| 2026-05-06 12:53 | 53.63109 | 10.00191 | 62 ft | 2 kts | 175° |
| 2026-05-06 12:54 | 53.63093 | 10.00200 | 62 ft | 2 kts | 147° |
| 2026-05-06 12:54 | 53.63083 | 10.00219 | 62 ft | 2 kts | 120° |
| 2026-05-06 12:54 | 53.63079 | 10.00241 | 62 ft | 1 kts | 99° |
| 2026-05-06 12:54 | 53.63077 | 10.00263 | 62 ft | 1 kts | 95° |
| 2026-05-06 12:55 | 53.63077 | 10.00284 | 62 ft | 1 kts | 93° |
| 2026-05-06 12:55 | 53.63076 | 10.00306 | 62 ft | 1 kts | 94° |
| 2026-05-06 12:55 | 53.63075 | 10.00327 | 62 ft | 1 kts | 94° |
| 2026-05-06 12:55 | 53.63074 | 10.00348 | 62 ft | 1 kts | 92° |
| 2026-05-06 12:56 | 53.63074 | 10.00370 | 62 ft | 1 kts | 94° |
| 2026-05-06 12:56 | 53.63073 | 10.00378 | 62 ft | 0 kts | 94° |